Charles M. Schulz Sonoma County Airport Santa Rosa US
ICAO: KSTS
IATA: STS
Category: Medium
Scheduled Services: No

Elevation: 128 ft
TransAlt. 18000 ft.

Airport Communications:
NORCAL APP/DEP:127.8
ATIS:120.55
CTAF:118.5
GND:121.9
SANTA ROSA TWR:118.5
UNICOM:122.95

KSTS Zoom In..

If you have problems with the map follow the link
https://www.worldairports.se/pages/airport.php?
ICAO=KSTS

Runways:

(A) RW 01 length 5020 ft width 100 ft
---- / hdg 13

(B) RW 14 length 5121 ft width 150 ft
---- / hdg 141

(C) RW 19 length 5020 ft width 100 ft
---- / hdg 193

(D) RW 32 length 5121 ft width 150 ft
ILS 109.30 / hdg 321

Location; KSTS
Day. 28 / Time. 14.14 Zulu
* Altimeter: 30.32
* Temperature: 11° c. 51.8°f.
* Wind from: 170° Speed 03 kn.
Dewpoint: 11° c.
Visibility: 4 Statute Miles.
Clouds: Overcast 400 ft.
Conditions: Mist.

KSTS 281414Z AUTO 17003KT 4SM BR OVC004 11/11 A3032 RMK AO2 T01110111


Wind From 170°
Speed 03 kn.

 
 
jpsmedia worldairports.se 2020   terms of use